sensor_id;sensor_type;location;lat;lon;timestamp;P1;durP1;ratioP1;P2;durP2;ratioP2
38399;SDS011;24180;42.676;23.320;2024-03-07T00:02:06;27.92;;;13.20;;
38399;SDS011;24180;42.676;23.320;2024-03-07T00:04:32;26.65;;;13.23;;
38399;SDS011;24180;42.676;23.320;2024-03-07T00:06:57;27.40;;;13.07;;
38399;SDS011;24180;42.676;23.320;2024-03-07T00:09:23;25.27;;;11.75;;
38399;SDS011;24180;42.676;23.320;2024-03-07T00:11:49;28.23;;;12.10;;
38399;SDS011;24180;42.676;23.320;2024-03-07T00:14:15;23.27;;;12.55;;
38399;SDS011;24180;42.676;23.320;2024-03-07T00:16:41;28.63;;;13.07;;
38399;SDS011;24180;42.676;23.320;2024-03-07T00:19:06;30.92;;;12.43;;
38399;SDS011;24180;42.676;23.320;2024-03-07T00:21:32;28.48;;;12.48;;
38399;SDS011;24180;42.676;23.320;2024-03-07T00:23:57;29.05;;;12.68;;
38399;SDS011;24180;42.676;23.320;2024-03-07T00:26:24;28.27;;;12.77;;
38399;SDS011;24180;42.676;23.320;2024-03-07T00:28:50;30.63;;;13.02;;
38399;SDS011;24180;42.676;23.320;2024-03-07T00:31:16;28.40;;;12.90;;
38399;SDS011;24180;42.676;23.320;2024-03-07T00:33:42;25.27;;;13.10;;
38399;SDS011;24180;42.676;23.320;2024-03-07T00:36:07;25.42;;;12.40;;
38399;SDS011;24180;42.676;23.320;2024-03-07T00:38:33;24.08;;;11.60;;
38399;SDS011;24180;42.676;23.320;2024-03-07T00:40:59;25.73;;;11.50;;
38399;SDS011;24180;42.676;23.320;2024-03-07T00:43:25;26.35;;;12.38;;
38399;SDS011;24180;42.676;23.320;2024-03-07T00:45:51;24.92;;;11.68;;
38399;SDS011;24180;42.676;23.320;2024-03-07T00:48:16;23.98;;;10.88;;
38399;SDS011;24180;42.676;23.320;2024-03-07T00:50:43;24.40;;;10.95;;
38399;SDS011;24180;42.676;23.320;2024-03-07T00:53:08;25.15;;;11.48;;
38399;SDS011;24180;42.676;23.320;2024-03-07T00:55:35;25.83;;;11.82;;
38399;SDS011;24180;42.676;23.320;2024-03-07T00:58:00;24.33;;;11.45;;
38399;SDS011;24180;42.676;23.320;2024-03-07T01:00:26;24.35;;;11.32;;
38399;SDS011;24180;42.676;23.320;2024-03-07T01:02:53;23.17;;;10.52;;
38399;SDS011;24180;42.676;23.320;2024-03-07T01:05:19;20.80;;;10.15;;
38399;SDS011;24180;42.676;23.320;2024-03-07T01:07:45;21.80;;;10.70;;
38399;SDS011;24180;42.676;23.320;2024-03-07T01:10:14;23.27;;;10.70;;
38399;SDS011;24180;42.676;23.320;2024-03-07T01:12:40;26.50;;;10.90;;
38399;SDS011;24180;42.676;23.320;2024-03-07T01:15:06;25.65;;;11.15;;
38399;SDS011;24180;42.676;23.320;2024-03-07T01:17:33;21.77;;;10.45;;
38399;SDS011;24180;42.676;23.320;2024-03-07T01:19:59;22.67;;;11.27;;
38399;SDS011;24180;42.676;23.320;2024-03-07T01:22:24;24.83;;;10.70;;
38399;SDS011;24180;42.676;23.320;2024-03-07T01:24:50;21.73;;;10.52;;
38399;SDS011;24180;42.676;23.320;2024-03-07T01:27:18;28.27;;;13.95;;
38399;SDS011;24180;42.676;23.320;2024-03-07T01:29:44;22.52;;;11.35;;
38399;SDS011;24180;42.676;23.320;2024-03-07T01:32:10;23.67;;;11.35;;
38399;SDS011;24180;42.676;23.320;2024-03-07T01:34:36;21.33;;;11.32;;
38399;SDS011;24180;42.676;23.320;2024-03-07T01:37:01;23.33;;;11.00;;
38399;SDS011;24180;42.676;23.320;2024-03-07T01:39:27;22.77;;;9.63;;
38399;SDS011;24180;42.676;23.320;2024-03-07T01:41:53;25.10;;;12.60;;
38399;SDS011;24180;42.676;23.320;2024-03-07T01:44:19;22.52;;;10.70;;
38399;SDS011;24180;42.676;23.320;2024-03-07T01:46:44;20.02;;;10.25;;
38399;SDS011;24180;42.676;23.320;2024-03-07T01:49:10;23.00;;;10.80;;
38399;SDS011;24180;42.676;23.320;2024-03-07T01:51:36;20.15;;;9.93;;
38399;SDS011;24180;42.676;23.320;2024-03-07T01:58:54;21.42;;;10.15;;
38399;SDS011;24180;42.676;23.320;2024-03-07T02:01:22;16.58;;;8.65;;
38399;SDS011;24180;42.676;23.320;2024-03-07T02:03:48;15.77;;;8.52;;
38399;SDS011;24180;42.676;23.320;2024-03-07T02:06:13;21.65;;;9.40;;
38399;SDS011;24180;42.676;23.320;2024-03-07T02:08:40;19.58;;;9.38;;
38399;SDS011;24180;42.676;23.320;2024-03-07T02:11:06;20.48;;;9.57;;
38399;SDS011;24180;42.676;23.320;2024-03-07T02:13:31;20.77;;;10.55;;
38399;SDS011;24180;42.676;23.320;2024-03-07T02:15:57;20.80;;;10.02;;
38399;SDS011;24180;42.676;23.320;2024-03-07T02:18:23;20.70;;;9.90;;
38399;SDS011;24180;42.676;23.320;2024-03-07T02:20:49;18.60;;;9.32;;
38399;SDS011;24180;42.676;23.320;2024-03-07T02:23:14;18.80;;;9.18;;
38399;SDS011;24180;42.676;23.320;2024-03-07T02:25:40;23.45;;;10.27;;
38399;SDS011;24180;42.676;23.320;2024-03-07T02:28:06;21.35;;;9.85;;
38399;SDS011;24180;42.676;23.320;2024-03-07T02:30:32;13.85;;;7.47;;
38399;SDS011;24180;42.676;23.320;2024-03-07T02:32:58;12.60;;;7.03;;
38399;SDS011;24180;42.676;23.320;2024-03-07T02:35:31;10.52;;;6.55;;
38399;SDS011;24180;42.676;23.320;2024-03-07T02:37:58;6.28;;;4.35;;
38399;SDS011;24180;42.676;23.320;2024-03-07T02:40:24;9.23;;;4.85;;
38399;SDS011;24180;42.676;23.320;2024-03-07T02:42:49;6.07;;;3.63;;
38399;SDS011;24180;42.676;23.320;2024-03-07T02:45:14;3.25;;;2.38;;
38399;SDS011;24180;42.676;23.320;2024-03-07T02:47:41;3.35;;;2.25;;
38399;SDS011;24180;42.676;23.320;2024-03-07T02:50:08;2.00;;;1.67;;
38399;SDS011;24180;42.676;23.320;2024-03-07T02:55:00;1.42;;;1.33;;
38399;SDS011;24180;42.676;23.320;2024-03-07T02:57:25;1.77;;;1.33;;
38399;SDS011;24180;42.676;23.320;2024-03-07T02:59:51;1.30;;;1.17;;
38399;SDS011;24180;42.676;23.320;2024-03-07T03:02:16;1.33;;;1.23;;
38399;SDS011;24180;42.676;23.320;2024-03-07T03:04:42;2.25;;;1.20;;
38399;SDS011;24180;42.676;23.320;2024-03-07T03:07:07;1.67;;;1.10;;
38399;SDS011;24180;42.676;23.320;2024-03-07T03:09:33;1.33;;;1.23;;
38399;SDS011;24180;42.676;23.320;2024-03-07T03:11:58;1.17;;;1.10;;
38399;SDS011;24180;42.676;23.320;2024-03-07T03:14:24;1.42;;;1.33;;
38399;SDS011;24180;42.676;23.320;2024-03-07T03:16:50;1.20;;;1.17;;
38399;SDS011;24180;42.676;23.320;2024-03-07T03:19:15;1.83;;;1.45;;
38399;SDS011;24180;42.676;23.320;2024-03-07T03:21:41;1.67;;;1.20;;
38399;SDS011;24180;42.676;23.320;2024-03-07T03:24:07;1.67;;;1.58;;
38399;SDS011;24180;42.676;23.320;2024-03-07T03:26:33;1.60;;;1.50;;
38399;SDS011;24180;42.676;23.320;2024-03-07T03:28:58;2.35;;;1.40;;
38399;SDS011;24180;42.676;23.320;2024-03-07T03:31:24;1.75;;;1.33;;
38399;SDS011;24180;42.676;23.320;2024-03-07T03:33:50;1.63;;;1.52;;
38399;SDS011;24180;42.676;23.320;2024-03-07T03:36:16;1.48;;;1.38;;
38399;SDS011;24180;42.676;23.320;2024-03-07T03:38:41;1.77;;;1.67;;
38399;SDS011;24180;42.676;23.320;2024-03-07T03:41:07;1.67;;;1.50;;
38399;SDS011;24180;42.676;23.320;2024-03-07T03:43:32;2.85;;;2.55;;
38399;SDS011;24180;42.676;23.320;2024-03-07T03:45:59;3.65;;;2.28;;
38399;SDS011;24180;42.676;23.320;2024-03-07T03:48:24;3.35;;;2.20;;
38399;SDS011;24180;42.676;23.320;2024-03-07T03:50:50;2.38;;;1.65;;
38399;SDS011;24180;42.676;23.320;2024-03-07T03:53:16;1.73;;;1.63;;
38399;SDS011;24180;42.676;23.320;2024-03-07T03:55:43;1.48;;;1.38;;
38399;SDS011;24180;42.676;23.320;2024-03-07T03:58:08;1.45;;;1.35;;
38399;SDS011;24180;42.676;23.320;2024-03-07T04:00:34;1.05;;;0.98;;
38399;SDS011;24180;42.676;23.320;2024-03-07T04:02:59;1.25;;;1.15;;
38399;SDS011;24180;42.676;23.320;2024-03-07T04:05:25;1.48;;;1.00;;
38399;SDS011;24180;42.676;23.320;2024-03-07T04:07:50;1.73;;;1.35;;
38399;SDS011;24180;42.676;23.320;2024-03-07T04:10:16;1.30;;;1.20;;
38399;SDS011;24180;42.676;23.320;2024-03-07T04:12:42;1.38;;;1.27;;
38399;SDS011;24180;42.676;23.320;2024-03-07T04:15:09;1.30;;;1.20;;
38399;SDS011;24180;42.676;23.320;2024-03-07T04:17:36;1.60;;;1.50;;
38399;SDS011;24180;42.676;23.320;2024-03-07T04:20:03;1.73;;;1.50;;
38399;SDS011;24180;42.676;23.320;2024-03-07T04:22:33;1.45;;;1.33;;
38399;SDS011;24180;42.676;23.320;2024-03-07T04:24:59;1.45;;;1.35;;
38399;SDS011;24180;42.676;23.320;2024-03-07T04:27:26;1.48;;;1.17;;
38399;SDS011;24180;42.676;23.320;2024-03-07T04:29:52;2.53;;;1.05;;
38399;SDS011;24180;42.676;23.320;2024-03-07T04:32:17;1.40;;;1.30;;
38399;SDS011;24180;42.676;23.320;2024-03-07T04:34:45;1.85;;;1.17;;
38399;SDS011;24180;42.676;23.320;2024-03-07T04:37:11;0.95;;;0.90;;
38399;SDS011;24180;42.676;23.320;2024-03-07T04:39:39;1.10;;;0.98;;
38399;SDS011;24180;42.676;23.320;2024-03-07T04:42:06;1.20;;;1.00;;
38399;SDS011;24180;42.676;23.320;2024-03-07T04:44:32;0.77;;;0.77;;
38399;SDS011;24180;42.676;23.320;2024-03-07T04:47:00;1.33;;;0.88;;
38399;SDS011;24180;42.676;23.320;2024-03-07T04:49:27;0.50;;;0.50;;
38399;SDS011;24180;42.676;23.320;2024-03-07T04:51:54;0.77;;;0.68;;
38399;SDS011;24180;42.676;23.320;2024-03-07T04:54:21;0.80;;;0.75;;
38399;SDS011;24180;42.676;23.320;2024-03-07T04:56:48;0.68;;;0.68;;
38399;SDS011;24180;42.676;23.320;2024-03-07T04:59:15;0.50;;;0.50;;
38399;SDS011;24180;42.676;23.320;2024-03-07T05:01:42;0.75;;;0.75;;
38399;SDS011;24180;42.676;23.320;2024-03-07T05:04:08;0.68;;;0.68;;
38399;SDS011;24180;42.676;23.320;2024-03-07T05:06:34;0.80;;;0.80;;
38399;SDS011;24180;42.676;23.320;2024-03-07T05:09:03;0.60;;;0.60;;
38399;SDS011;24180;42.676;23.320;2024-03-07T05:11:30;0.88;;;0.82;;
38399;SDS011;24180;42.676;23.320;2024-03-07T05:13:56;1.20;;;1.05;;
38399;SDS011;24180;42.676;23.320;2024-03-07T05:16:28;1.50;;;1.40;;
38399;SDS011;24180;42.676;23.320;2024-03-07T05:18:54;0.80;;;0.80;;
38399;SDS011;24180;42.676;23.320;2024-03-07T05:21:23;0.85;;;0.85;;
38399;SDS011;24180;42.676;23.320;2024-03-07T05:23:58;1.35;;;1.30;;
38399;SDS011;24180;42.676;23.320;2024-03-07T05:26:24;2.00;;;1.90;;
38399;SDS011;24180;42.676;23.320;2024-03-07T05:28:51;1.77;;;1.67;;
38399;SDS011;24180;42.676;23.320;2024-03-07T05:31:17;1.80;;;1.70;;
38399;SDS011;24180;42.676;23.320;2024-03-07T05:33:43;2.83;;;2.22;;
38399;SDS011;24180;42.676;23.320;2024-03-07T05:36:09;2.22;;;1.98;;
38399;SDS011;24180;42.676;23.320;2024-03-07T05:38:41;2.45;;;2.25;;
38399;SDS011;24180;42.676;23.320;2024-03-07T05:41:10;2.42;;;2.22;;
38399;SDS011;24180;42.676;23.320;2024-03-07T05:43:37;4.78;;;2.78;;
38399;SDS011;24180;42.676;23.320;2024-03-07T05:46:06;4.43;;;3.10;;
38399;SDS011;24180;42.676;23.320;2024-03-07T05:48:35;4.00;;;3.30;;
38399;SDS011;24180;42.676;23.320;2024-03-07T05:51:01;6.13;;;2.70;;
38399;SDS011;24180;42.676;23.320;2024-03-07T05:53:26;3.78;;;2.72;;
38399;SDS011;24180;42.676;23.320;2024-03-07T05:55:52;3.28;;;2.40;;
38399;SDS011;24180;42.676;23.320;2024-03-07T05:58:18;3.42;;;2.47;;
38399;SDS011;24180;42.676;23.320;2024-03-07T06:00:45;3.22;;;2.92;;
38399;SDS011;24180;42.676;23.320;2024-03-07T06:03:17;2.75;;;2.55;;
38399;SDS011;24180;42.676;23.320;2024-03-07T06:05:47;3.42;;;2.40;;
38399;SDS011;24180;42.676;23.320;2024-03-07T06:08:19;2.90;;;2.70;;
38399;SDS011;24180;42.676;23.320;2024-03-07T06:10:46;3.00;;;2.60;;
38399;SDS011;24180;42.676;23.320;2024-03-07T06:13:13;3.85;;;3.50;;
38399;SDS011;24180;42.676;23.320;2024-03-07T06:15:42;2.65;;;2.45;;
38399;SDS011;24180;42.676;23.320;2024-03-07T06:18:08;4.80;;;3.15;;
38399;SDS011;24180;42.676;23.320;2024-03-07T06:23:02;5.10;;;3.15;;
38399;SDS011;24180;42.676;23.320;2024-03-07T06:25:30;4.70;;;3.33;;
38399;SDS011;24180;42.676;23.320;2024-03-07T06:28:02;3.50;;;2.97;;
38399;SDS011;24180;42.676;23.320;2024-03-07T06:30:38;5.22;;;3.22;;
38399;SDS011;24180;42.676;23.320;2024-03-07T06:33:05;2.67;;;2.47;;
38399;SDS011;24180;42.676;23.320;2024-03-07T06:35:31;3.67;;;3.17;;
38399;SDS011;24180;42.676;23.320;2024-03-07T06:37:57;3.10;;;2.80;;
38399;SDS011;24180;42.676;23.320;2024-03-07T06:40:22;4.07;;;3.67;;
38399;SDS011;24180;42.676;23.320;2024-03-07T06:42:48;5.32;;;4.05;;
38399;SDS011;24180;42.676;23.320;2024-03-07T06:45:14;4.03;;;3.25;;
38399;SDS011;24180;42.676;23.320;2024-03-07T06:47:40;4.72;;;3.53;;
38399;SDS011;24180;42.676;23.320;2024-03-07T06:50:06;3.67;;;3.15;;
38399;SDS011;24180;42.676;23.320;2024-03-07T06:52:34;8.90;;;3.75;;
38399;SDS011;24180;42.676;23.320;2024-03-07T06:55:00;5.35;;;3.58;;
38399;SDS011;24180;42.676;23.320;2024-03-07T06:57:29;5.65;;;4.03;;
38399;SDS011;24180;42.676;23.320;2024-03-07T06:59:54;9.45;;;5.43;;
38399;SDS011;24180;42.676;23.320;2024-03-07T07:02:20;3.75;;;3.42;;
38399;SDS011;24180;42.676;23.320;2024-03-07T07:04:46;5.72;;;3.65;;
38399;SDS011;24180;42.676;23.320;2024-03-07T07:07:13;5.15;;;3.78;;
38399;SDS011;24180;42.676;23.320;2024-03-07T07:09:39;5.55;;;3.75;;
38399;SDS011;24180;42.676;23.320;2024-03-07T07:12:05;6.35;;;3.65;;
38399;SDS011;24180;42.676;23.320;2024-03-07T07:14:31;4.60;;;3.75;;
38399;SDS011;24180;42.676;23.320;2024-03-07T07:16:56;9.73;;;5.35;;
38399;SDS011;24180;42.676;23.320;2024-03-07T07:19:24;4.55;;;4.10;;
38399;SDS011;24180;42.676;23.320;2024-03-07T07:21:49;5.78;;;4.10;;
38399;SDS011;24180;42.676;23.320;2024-03-07T07:24:18;4.72;;;3.78;;
38399;SDS011;24180;42.676;23.320;2024-03-07T07:26:44;3.97;;;3.17;;
38399;SDS011;24180;42.676;23.320;2024-03-07T07:29:10;3.25;;;2.95;;
38399;SDS011;24180;42.676;23.320;2024-03-07T07:31:36;3.20;;;2.90;;
38399;SDS011;24180;42.676;23.320;2024-03-07T07:34:01;2.70;;;2.50;;
38399;SDS011;24180;42.676;23.320;2024-03-07T07:36:29;2.20;;;1.98;;
38399;SDS011;24180;42.676;23.320;2024-03-07T07:38:55;3.65;;;2.15;;
38399;SDS011;24180;42.676;23.320;2024-03-07T07:41:20;2.65;;;2.45;;
38399;SDS011;24180;42.676;23.320;2024-03-07T07:43:46;3.55;;;2.10;;
38399;SDS011;24180;42.676;23.320;2024-03-07T07:46:13;3.13;;;2.83;;
38399;SDS011;24180;42.676;23.320;2024-03-07T07:48:41;4.03;;;2.40;;
38399;SDS011;24180;42.676;23.320;2024-03-07T07:51:07;3.55;;;3.00;;
38399;SDS011;24180;42.676;23.320;2024-03-07T07:53:32;4.22;;;3.10;;
38399;SDS011;24180;42.676;23.320;2024-03-07T07:55:58;3.65;;;3.30;;
38399;SDS011;24180;42.676;23.320;2024-03-07T07:58:24;3.72;;;3.35;;
38399;SDS011;24180;42.676;23.320;2024-03-07T08:00:49;3.45;;;3.15;;
38399;SDS011;24180;42.676;23.320;2024-03-07T08:03:15;2.83;;;2.63;;
38399;SDS011;24180;42.676;23.320;2024-03-07T08:05:42;2.05;;;1.95;;
38399;SDS011;24180;42.676;23.320;2024-03-07T08:08:09;2.53;;;2.33;;
38399;SDS011;24180;42.676;23.320;2024-03-07T08:10:38;2.78;;;2.33;;
38399;SDS011;24180;42.676;23.320;2024-03-07T08:13:06;3.05;;;2.42;;
38399;SDS011;24180;42.676;23.320;2024-03-07T08:15:33;3.33;;;3.10;;
38399;SDS011;24180;42.676;23.320;2024-03-07T08:17:59;2.60;;;2.40;;
38399;SDS011;24180;42.676;23.320;2024-03-07T08:20:25;2.70;;;2.50;;
38399;SDS011;24180;42.676;23.320;2024-03-07T08:25:19;3.28;;;2.45;;
38399;SDS011;24180;42.676;23.320;2024-03-07T08:27:48;5.68;;;2.50;;
38399;SDS011;24180;42.676;23.320;2024-03-07T08:30:15;2.40;;;2.30;;
38399;SDS011;24180;42.676;23.320;2024-03-07T08:32:44;2.97;;;2.63;;
38399;SDS011;24180;42.676;23.320;2024-03-07T08:35:11;2.20;;;2.00;;
38399;SDS011;24180;42.676;23.320;2024-03-07T08:37:41;1.98;;;1.88;;
38399;SDS011;24180;42.676;23.320;2024-03-07T08:40:07;2.80;;;2.30;;
38399;SDS011;24180;42.676;23.320;2024-03-07T08:42:44;3.53;;;2.30;;
38399;SDS011;24180;42.676;23.320;2024-03-07T08:45:11;2.15;;;2.05;;
38399;SDS011;24180;42.676;23.320;2024-03-07T08:47:37;3.35;;;2.45;;
38399;SDS011;24180;42.676;23.320;2024-03-07T08:50:03;3.20;;;3.00;;
38399;SDS011;24180;42.676;23.320;2024-03-07T08:52:36;2.40;;;2.20;;
38399;SDS011;24180;42.676;23.320;2024-03-07T08:55:03;1.38;;;1.27;;
38399;SDS011;24180;42.676;23.320;2024-03-07T08:57:29;3.67;;;1.80;;
38399;SDS011;24180;42.676;23.320;2024-03-07T08:59:55;2.58;;;2.38;;
38399;SDS011;24180;42.676;23.320;2024-03-07T09:02:21;2.35;;;2.10;;
38399;SDS011;24180;42.676;23.320;2024-03-07T09:04:46;3.45;;;3.15;;
38399;SDS011;24180;42.676;23.320;2024-03-07T09:07:12;2.30;;;2.20;;
38399;SDS011;24180;42.676;23.320;2024-03-07T09:09:40;2.95;;;2.50;;
38399;SDS011;24180;42.676;23.320;2024-03-07T09:12:08;2.88;;;2.42;;
38399;SDS011;24180;42.676;23.320;2024-03-07T09:14:34;2.38;;;2.17;;
38399;SDS011;24180;42.676;23.320;2024-03-07T09:17:00;1.98;;;1.85;;
38399;SDS011;24180;42.676;23.320;2024-03-07T09:19:26;22.20;;;2.90;;
38399;SDS011;24180;42.676;23.320;2024-03-07T09:21:52;31.35;;;3.35;;
38399;SDS011;24180;42.676;23.320;2024-03-07T09:24:18;2.10;;;2.00;;
38399;SDS011;24180;42.676;23.320;2024-03-07T09:26:50;1.67;;;1.58;;
38399;SDS011;24180;42.676;23.320;2024-03-07T09:29:17;2.20;;;2.08;;
38399;SDS011;24180;42.676;23.320;2024-03-07T09:31:46;2.30;;;2.10;;
38399;SDS011;24180;42.676;23.320;2024-03-07T09:34:14;2.70;;;2.10;;
38399;SDS011;24180;42.676;23.320;2024-03-07T09:36:40;2.55;;;2.40;;
38399;SDS011;24180;42.676;23.320;2024-03-07T09:39:08;5.53;;;2.85;;
38399;SDS011;24180;42.676;23.320;2024-03-07T09:41:40;2.33;;;2.17;;
38399;SDS011;24180;42.676;23.320;2024-03-07T09:44:05;3.55;;;3.10;;
38399;SDS011;24180;42.676;23.320;2024-03-07T09:46:34;5.10;;;2.88;;
38399;SDS011;24180;42.676;23.320;2024-03-07T09:49:00;3.40;;;2.90;;
38399;SDS011;24180;42.676;23.320;2024-03-07T09:51:26;7.72;;;3.03;;
38399;SDS011;24180;42.676;23.320;2024-03-07T09:53:53;4.35;;;3.00;;
38399;SDS011;24180;42.676;23.320;2024-03-07T09:56:23;4.03;;;3.72;;
38399;SDS011;24180;42.676;23.320;2024-03-07T09:58:50;3.00;;;2.72;;
38399;SDS011;24180;42.676;23.320;2024-03-07T10:01:19;2.90;;;2.67;;
38399;SDS011;24180;42.676;23.320;2024-03-07T10:03:50;3.13;;;2.80;;
38399;SDS011;24180;42.676;23.320;2024-03-07T10:06:18;3.10;;;2.90;;
38399;SDS011;24180;42.676;23.320;2024-03-07T10:08:46;2.38;;;2.22;;
38399;SDS011;24180;42.676;23.320;2024-03-07T10:11:12;2.80;;;2.55;;
38399;SDS011;24180;42.676;23.320;2024-03-07T10:13:39;9.38;;;3.05;;
38399;SDS011;24180;42.676;23.320;2024-03-07T10:16:06;4.53;;;3.47;;
38399;SDS011;24180;42.676;23.320;2024-03-07T10:18:33;4.07;;;3.67;;
38399;SDS011;24180;42.676;23.320;2024-03-07T10:21:06;3.15;;;2.90;;
38399;SDS011;24180;42.676;23.320;2024-03-07T10:23:32;2.70;;;2.50;;
38399;SDS011;24180;42.676;23.320;2024-03-07T10:25:59;2.83;;;2.63;;
38399;SDS011;24180;42.676;23.320;2024-03-07T10:28:26;4.10;;;3.70;;
38399;SDS011;24180;42.676;23.320;2024-03-07T10:30:56;3.13;;;2.92;;
38399;SDS011;24180;42.676;23.320;2024-03-07T10:33:21;3.35;;;3.05;;
38399;SDS011;24180;42.676;23.320;2024-03-07T10:35:52;3.53;;;3.22;;
38399;SDS011;24180;42.676;23.320;2024-03-07T10:38:18;2.92;;;2.72;;
38399;SDS011;24180;42.676;23.320;2024-03-07T10:40:45;4.72;;;3.40;;
38399;SDS011;24180;42.676;23.320;2024-03-07T10:43:13;3.05;;;2.85;;
38399;SDS011;24180;42.676;23.320;2024-03-07T10:45:46;3.30;;;3.10;;
38399;SDS011;24180;42.676;23.320;2024-03-07T10:48:13;3.38;;;3.08;;
38399;SDS011;24180;42.676;23.320;2024-03-07T10:53:40;2.83;;;2.55;;
38399;SDS011;24180;42.676;23.320;2024-03-07T10:56:25;4.30;;;2.72;;
38399;SDS011;24180;42.676;23.320;2024-03-07T10:59:11;4.85;;;2.92;;
38399;SDS011;24180;42.676;23.320;2024-03-07T11:04:49;10.13;;;3.33;;
38399;SDS011;24180;42.676;23.320;2024-03-07T11:07:17;4.45;;;3.03;;
38399;SDS011;24180;42.676;23.320;2024-03-07T11:09:45;6.45;;;3.55;;
38399;SDS011;24180;42.676;23.320;2024-03-07T11:12:13;6.35;;;3.58;;
38399;SDS011;24180;42.676;23.320;2024-03-07T11:14:40;3.25;;;3.03;;
38399;SDS011;24180;42.676;23.320;2024-03-07T11:17:08;4.93;;;2.28;;
38399;SDS011;24180;42.676;23.320;2024-03-07T11:19:34;4.18;;;2.50;;
38399;SDS011;24180;42.676;23.320;2024-03-07T11:22:02;2.70;;;2.47;;
38399;SDS011;24180;42.676;23.320;2024-03-07T11:24:39;3.50;;;2.38;;
38399;SDS011;24180;42.676;23.320;2024-03-07T11:27:04;4.72;;;2.70;;
38399;SDS011;24180;42.676;23.320;2024-03-07T11:32:14;3.60;;;2.33;;
38399;SDS011;24180;42.676;23.320;2024-03-07T11:34:44;3.00;;;2.70;;
38399;SDS011;24180;42.676;23.320;2024-03-07T11:37:17;6.10;;;3.10;;
38399;SDS011;24180;42.676;23.320;2024-03-07T11:39:47;2.45;;;2.30;;
38399;SDS011;24180;42.676;23.320;2024-03-07T11:44:55;3.35;;;3.00;;
38399;SDS011;24180;42.676;23.320;2024-03-07T11:47:22;2.03;;;1.92;;
38399;SDS011;24180;42.676;23.320;2024-03-07T11:49:49;2.08;;;1.98;;
38399;SDS011;24180;42.676;23.320;2024-03-07T11:52:17;4.05;;;2.15;;
38399;SDS011;24180;42.676;23.320;2024-03-07T11:54:43;2.22;;;2.03;;
38399;SDS011;24180;42.676;23.320;2024-03-07T11:57:13;2.22;;;2.03;;
38399;SDS011;24180;42.676;23.320;2024-03-07T11:59:42;2.83;;;2.63;;
38399;SDS011;24180;42.676;23.320;2024-03-07T12:02:14;2.63;;;2.42;;
38399;SDS011;24180;42.676;23.320;2024-03-07T12:04:43;2.60;;;2.40;;
38399;SDS011;24180;42.676;23.320;2024-03-07T12:07:09;2.67;;;2.53;;
38399;SDS011;24180;42.676;23.320;2024-03-07T12:09:40;3.15;;;2.75;;
38399;SDS011;24180;42.676;23.320;2024-03-07T12:12:10;4.22;;;2.38;;
38399;SDS011;24180;42.676;23.320;2024-03-07T12:17:02;2.40;;;2.30;;
38399;SDS011;24180;42.676;23.320;2024-03-07T12:19:32;3.90;;;2.08;;
38399;SDS011;24180;42.676;23.320;2024-03-07T12:22:01;2.30;;;2.10;;
38399;SDS011;24180;42.676;23.320;2024-03-07T12:24:28;3.00;;;2.38;;
38399;SDS011;24180;42.676;23.320;2024-03-07T12:27:04;2.00;;;1.90;;
38399;SDS011;24180;42.676;23.320;2024-03-07T12:29:31;2.30;;;2.10;;
38399;SDS011;24180;42.676;23.320;2024-03-07T12:31:57;2.20;;;2.10;;
38399;SDS011;24180;42.676;23.320;2024-03-07T12:34:24;6.07;;;2.55;;
38399;SDS011;24180;42.676;23.320;2024-03-07T12:36:52;2.75;;;2.53;;
38399;SDS011;24180;42.676;23.320;2024-03-07T12:39:24;2.35;;;2.15;;
38399;SDS011;24180;42.676;23.320;2024-03-07T12:41:51;2.97;;;2.65;;
38399;SDS011;24180;42.676;23.320;2024-03-07T12:44:20;2.72;;;2.53;;
38399;SDS011;24180;42.676;23.320;2024-03-07T12:46:56;2.72;;;2.30;;
38399;SDS011;24180;42.676;23.320;2024-03-07T12:49:22;2.90;;;2.70;;
38399;SDS011;24180;42.676;23.320;2024-03-07T12:51:54;3.03;;;2.58;;
38399;SDS011;24180;42.676;23.320;2024-03-07T12:54:21;5.47;;;3.00;;
38399;SDS011;24180;42.676;23.320;2024-03-07T12:56:47;2.72;;;2.40;;
38399;SDS011;24180;42.676;23.320;2024-03-07T12:59:15;3.95;;;3.28;;
38399;SDS011;24180;42.676;23.320;2024-03-07T13:01:41;3.45;;;3.15;;
38399;SDS011;24180;42.676;23.320;2024-03-07T13:04:10;4.32;;;3.88;;
38399;SDS011;24180;42.676;23.320;2024-03-07T13:06:36;3.33;;;3.13;;
38399;SDS011;24180;42.676;23.320;2024-03-07T13:09:02;3.40;;;3.10;;
38399;SDS011;24180;42.676;23.320;2024-03-07T13:11:35;3.30;;;3.10;;
38399;SDS011;24180;42.676;23.320;2024-03-07T13:14:11;4.18;;;3.70;;
38399;SDS011;24180;42.676;23.320;2024-03-07T13:16:37;4.15;;;3.42;;
38399;SDS011;24180;42.676;23.320;2024-03-07T13:19:02;4.78;;;3.30;;
38399;SDS011;24180;42.676;23.320;2024-03-07T13:23:56;3.90;;;3.50;;
38399;SDS011;24180;42.676;23.320;2024-03-07T13:26:23;4.10;;;3.70;;
38399;SDS011;24180;42.676;23.320;2024-03-07T13:28:51;3.70;;;3.40;;
38399;SDS011;24180;42.676;23.320;2024-03-07T13:31:18;3.72;;;3.42;;
38399;SDS011;24180;42.676;23.320;2024-03-07T13:33:45;5.05;;;3.10;;
38399;SDS011;24180;42.676;23.320;2024-03-07T13:36:11;3.75;;;3.22;;
38399;SDS011;24180;42.676;23.320;2024-03-07T13:38:36;3.22;;;2.95;;
38399;SDS011;24180;42.676;23.320;2024-03-07T13:45:54;2.45;;;2.20;;
38399;SDS011;24180;42.676;23.320;2024-03-07T13:53:17;2.28;;;2.10;;
38399;SDS011;24180;42.676;23.320;2024-03-07T14:09:26;12.95;;;5.05;;
38399;SDS011;24180;42.676;23.320;2024-03-07T14:21:04;6.38;;;3.50;;
38399;SDS011;24180;42.676;23.320;2024-03-07T14:26:58;6.00;;;3.13;;
38399;SDS011;24180;42.676;23.320;2024-03-07T14:32:14;8.43;;;4.60;;
38399;SDS011;24180;42.676;23.320;2024-03-07T14:35:29;9.20;;;5.15;;
38399;SDS011;24180;42.676;23.320;2024-03-07T14:40:45;6.55;;;4.35;;
38399;SDS011;24180;42.676;23.320;2024-03-07T14:43:14;7.45;;;4.68;;
38399;SDS011;24180;42.676;23.320;2024-03-07T14:45:42;6.47;;;4.97;;
38399;SDS011;24180;42.676;23.320;2024-03-07T14:48:08;6.82;;;4.20;;
38399;SDS011;24180;42.676;23.320;2024-03-07T14:50:40;5.45;;;3.92;;
38399;SDS011;24180;42.676;23.320;2024-03-07T14:53:07;9.15;;;4.72;;
38399;SDS011;24180;42.676;23.320;2024-03-07T14:55:33;8.18;;;5.32;;
38399;SDS011;24180;42.676;23.320;2024-03-07T14:58:00;9.68;;;5.85;;
38399;SDS011;24180;42.676;23.320;2024-03-07T15:00:26;8.98;;;5.18;;
38399;SDS011;24180;42.676;23.320;2024-03-07T15:02:53;6.88;;;5.03;;
38399;SDS011;24180;42.676;23.320;2024-03-07T15:05:23;9.93;;;5.63;;
38399;SDS011;24180;42.676;23.320;2024-03-07T15:07:49;9.38;;;5.68;;
38399;SDS011;24180;42.676;23.320;2024-03-07T15:10:26;11.55;;;5.43;;
38399;SDS011;24180;42.676;23.320;2024-03-07T15:12:55;8.45;;;5.45;;
38399;SDS011;24180;42.676;23.320;2024-03-07T15:15:21;8.27;;;5.72;;
38399;SDS011;24180;42.676;23.320;2024-03-07T15:17:50;7.95;;;4.75;;
38399;SDS011;24180;42.676;23.320;2024-03-07T15:20:16;10.90;;;6.07;;
38399;SDS011;24180;42.676;23.320;2024-03-07T15:22:51;8.20;;;4.93;;
38399;SDS011;24180;42.676;23.320;2024-03-07T15:25:18;8.60;;;5.38;;
38399;SDS011;24180;42.676;23.320;2024-03-07T15:27:44;12.50;;;6.43;;
38399;SDS011;24180;42.676;23.320;2024-03-07T15:30:14;15.23;;;5.70;;
38399;SDS011;24180;42.676;23.320;2024-03-07T15:32:41;10.43;;;6.00;;
38399;SDS011;24180;42.676;23.320;2024-03-07T15:35:08;10.82;;;6.13;;
38399;SDS011;24180;42.676;23.320;2024-03-07T15:37:49;13.65;;;6.53;;
38399;SDS011;24180;42.676;23.320;2024-03-07T15:40:18;11.20;;;6.32;;
38399;SDS011;24180;42.676;23.320;2024-03-07T15:42:49;12.05;;;6.15;;